Terminal Aerodrome Forecast
Issued by NWS

Home | Current Version | Previous Version | Text Only | Print | Product List | Glossary On
Versions: 1 2 3 4 5 6 7 8 9 10 11 12 13 14 15
000
FTUS43 KMQT 230540
TAFSAW
TAF
KSAW 230540Z 2306/2406 25004KT P6SM SCT100
     FM231500 26009KT P6SM FEW200
     FM231700 29012G20KT P6SM SCT050
     FM240200 29008KT P6SM SCT100=

USA.gov is the U.S. government's official web portal to all federal, state and local government web resources and services.